sensor_id;sensor_type;location;lat;lon;timestamp;temperature;humidity
40538;DHT22;27925;41.874;12.526;2023-04-15T00:02:25;11.70;81.30
40538;DHT22;27925;41.874;12.526;2023-04-15T00:04:51;11.70;81.30
40538;DHT22;27925;41.874;12.526;2023-04-15T00:07:16;11.70;81.50
40538;DHT22;27925;41.874;12.526;2023-04-15T00:09:42;11.70;81.70
40538;DHT22;27925;41.874;12.526;2023-04-15T00:12:10;11.70;81.80
40538;DHT22;27925;41.874;12.526;2023-04-15T00:14:35;11.70;82.00
40538;DHT22;27925;41.874;12.526;2023-04-15T00:17:02;11.70;81.90
40538;DHT22;27925;41.874;12.526;2023-04-15T00:19:28;11.70;81.90
40538;DHT22;27925;41.874;12.526;2023-04-15T00:21:54;11.70;82.10
40538;DHT22;27925;41.874;12.526;2023-04-15T00:24:20;11.70;82.30
40538;DHT22;27925;41.874;12.526;2023-04-15T00:26:45;11.70;82.60
40538;DHT22;27925;41.874;12.526;2023-04-15T00:29:12;11.60;82.50
40538;DHT22;27925;41.874;12.526;2023-04-15T00:31:37;11.70;82.90
40538;DHT22;27925;41.874;12.526;2023-04-15T00:34:03;11.70;82.90
40538;DHT22;27925;41.874;12.526;2023-04-15T00:36:29;11.70;83.30
40538;DHT22;27925;41.874;12.526;2023-04-15T00:38:56;11.80;83.60
40538;DHT22;27925;41.874;12.526;2023-04-15T00:41:22;11.70;83.30
40538;DHT22;27925;41.874;12.526;2023-04-15T00:43:47;11.80;83.20
40538;DHT22;27925;41.874;12.526;2023-04-15T00:46:15;11.80;83.50
40538;DHT22;27925;41.874;12.526;2023-04-15T00:48:42;11.80;83.50
40538;DHT22;27925;41.874;12.526;2023-04-15T00:51:08;11.80;83.50
40538;DHT22;27925;41.874;12.526;2023-04-15T00:53:34;11.80;83.40
40538;DHT22;27925;41.874;12.526;2023-04-15T00:56:00;11.80;83.50
40538;DHT22;27925;41.874;12.526;2023-04-15T00:58:25;11.80;83.60
40538;DHT22;27925;41.874;12.526;2023-04-15T01:00:53;11.80;83.80
40538;DHT22;27925;41.874;12.526;2023-04-15T01:03:20;11.80;83.90
40538;DHT22;27925;41.874;12.526;2023-04-15T01:05:45;11.80;83.90
40538;DHT22;27925;41.874;12.526;2023-04-15T01:08:11;11.80;83.90
40538;DHT22;27925;41.874;12.526;2023-04-15T01:10:37;11.80;84.10
40538;DHT22;27925;41.874;12.526;2023-04-15T01:13:03;11.80;84.10
40538;DHT22;27925;41.874;12.526;2023-04-15T01:15:30;11.80;84.20
40538;DHT22;27925;41.874;12.526;2023-04-15T01:18:00;11.80;84.20
40538;DHT22;27925;41.874;12.526;2023-04-15T01:20:27;11.80;84.10
40538;DHT22;27925;41.874;12.526;2023-04-15T01:22:53;11.80;84.30
40538;DHT22;27925;41.874;12.526;2023-04-15T01:25:32;11.80;84.20
40538;DHT22;27925;41.874;12.526;2023-04-15T01:27:57;11.80;83.50
40538;DHT22;27925;41.874;12.526;2023-04-15T01:30:23;11.80;83.80
40538;DHT22;27925;41.874;12.526;2023-04-15T01:32:50;11.80;83.60
40538;DHT22;27925;41.874;12.526;2023-04-15T01:35:16;11.80;83.40
40538;DHT22;27925;41.874;12.526;2023-04-15T01:37:42;11.80;82.70
40538;DHT22;27925;41.874;12.526;2023-04-15T01:40:08;11.80;82.20
40538;DHT22;27925;41.874;12.526;2023-04-15T01:42:35;11.80;81.90
40538;DHT22;27925;41.874;12.526;2023-04-15T01:45:01;11.80;81.60
40538;DHT22;27925;41.874;12.526;2023-04-15T01:47:27;11.80;81.70
40538;DHT22;27925;41.874;12.526;2023-04-15T01:49:53;11.80;81.40
40538;DHT22;27925;41.874;12.526;2023-04-15T01:52:18;11.80;81.00
40538;DHT22;27925;41.874;12.526;2023-04-15T01:54:44;11.80;80.90
40538;DHT22;27925;41.874;12.526;2023-04-15T01:57:10;11.80;80.40
40538;DHT22;27925;41.874;12.526;2023-04-15T01:59:36;11.80;80.30
40538;DHT22;27925;41.874;12.526;2023-04-15T02:02:01;11.90;80.10
40538;DHT22;27925;41.874;12.526;2023-04-15T02:04:27;11.90;79.90
40538;DHT22;27925;41.874;12.526;2023-04-15T02:06:53;11.90;79.70
40538;DHT22;27925;41.874;12.526;2023-04-15T02:09:19;11.90;79.70
40538;DHT22;27925;41.874;12.526;2023-04-15T02:11:45;11.90;79.70
40538;DHT22;27925;41.874;12.526;2023-04-15T02:14:10;11.90;79.80
40538;DHT22;27925;41.874;12.526;2023-04-15T02:16:36;11.90;79.90
40538;DHT22;27925;41.874;12.526;2023-04-15T02:19:02;11.90;80.00
40538;DHT22;27925;41.874;12.526;2023-04-15T02:21:28;12.00;79.70
40538;DHT22;27925;41.874;12.526;2023-04-15T02:23:54;12.00;79.90
40538;DHT22;27925;41.874;12.526;2023-04-15T02:26:20;12.00;79.70
40538;DHT22;27925;41.874;12.526;2023-04-15T02:28:47;12.00;79.30
40538;DHT22;27925;41.874;12.526;2023-04-15T02:31:13;12.00;79.20
40538;DHT22;27925;41.874;12.526;2023-04-15T02:33:39;12.00;79.50
40538;DHT22;27925;41.874;12.526;2023-04-15T02:36:05;12.00;79.50
40538;DHT22;27925;41.874;12.526;2023-04-15T02:38:32;12.10;79.70
40538;DHT22;27925;41.874;12.526;2023-04-15T02:40:58;12.10;79.60
40538;DHT22;27925;41.874;12.526;2023-04-15T02:43:24;12.10;79.30
40538;DHT22;27925;41.874;12.526;2023-04-15T02:45:49;12.10;79.20
40538;DHT22;27925;41.874;12.526;2023-04-15T02:48:15;12.20;79.20
40538;DHT22;27925;41.874;12.526;2023-04-15T02:50:44;12.20;79.10
40538;DHT22;27925;41.874;12.526;2023-04-15T02:53:10;12.20;79.30
40538;DHT22;27925;41.874;12.526;2023-04-15T02:55:36;12.20;79.50
40538;DHT22;27925;41.874;12.526;2023-04-15T02:58:01;12.20;79.50
40538;DHT22;27925;41.874;12.526;2023-04-15T03:00:27;12.30;80.00
40538;DHT22;27925;41.874;12.526;2023-04-15T03:03:04;12.20;80.10
40538;DHT22;27925;41.874;12.526;2023-04-15T03:05:30;12.20;80.50
40538;DHT22;27925;41.874;12.526;2023-04-15T03:07:56;12.10;81.10
40538;DHT22;27925;41.874;12.526;2023-04-15T03:10:21;12.10;82.00
40538;DHT22;27925;41.874;12.526;2023-04-15T03:12:47;12.10;82.50
40538;DHT22;27925;41.874;12.526;2023-04-15T03:15:14;12.00;84.30
40538;DHT22;27925;41.874;12.526;2023-04-15T03:17:40;12.10;84.40
40538;DHT22;27925;41.874;12.526;2023-04-15T03:20:06;12.10;84.50
40538;DHT22;27925;41.874;12.526;2023-04-15T03:22:32;12.20;85.40
40538;DHT22;27925;41.874;12.526;2023-04-15T03:24:58;12.20;85.60
40538;DHT22;27925;41.874;12.526;2023-04-15T03:27:24;12.20;85.80
40538;DHT22;27925;41.874;12.526;2023-04-15T03:29:50;12.20;86.30
40538;DHT22;27925;41.874;12.526;2023-04-15T03:32:16;12.30;87.00
40538;DHT22;27925;41.874;12.526;2023-04-15T03:34:42;12.30;87.10
40538;DHT22;27925;41.874;12.526;2023-04-15T03:37:08;12.30;87.50
40538;DHT22;27925;41.874;12.526;2023-04-15T03:39:34;12.40;87.70
40538;DHT22;27925;41.874;12.526;2023-04-15T03:42:00;12.40;87.60
40538;DHT22;27925;41.874;12.526;2023-04-15T03:44:26;12.40;88.10
40538;DHT22;27925;41.874;12.526;2023-04-15T03:46:52;12.40;88.20
40538;DHT22;27925;41.874;12.526;2023-04-15T03:49:18;12.40;88.20
40538;DHT22;27925;41.874;12.526;2023-04-15T03:51:45;12.50;88.30
40538;DHT22;27925;41.874;12.526;2023-04-15T03:54:11;12.50;88.70
40538;DHT22;27925;41.874;12.526;2023-04-15T03:56:39;12.50;88.70
40538;DHT22;27925;41.874;12.526;2023-04-15T03:59:05;12.40;88.90
40538;DHT22;27925;41.874;12.526;2023-04-15T04:01:31;12.40;88.80
40538;DHT22;27925;41.874;12.526;2023-04-15T04:03:57;12.40;89.20
40538;DHT22;27925;41.874;12.526;2023-04-15T04:06:22;12.40;89.50
40538;DHT22;27925;41.874;12.526;2023-04-15T04:08:48;12.50;89.90
40538;DHT22;27925;41.874;12.526;2023-04-15T04:11:14;12.50;90.00
40538;DHT22;27925;41.874;12.526;2023-04-15T04:13:39;12.50;89.80
40538;DHT22;27925;41.874;12.526;2023-04-15T04:16:05;12.50;90.00
40538;DHT22;27925;41.874;12.526;2023-04-15T04:18:31;12.50;90.10
40538;DHT22;27925;41.874;12.526;2023-04-15T04:20:57;12.50;90.10
40538;DHT22;27925;41.874;12.526;2023-04-15T04:23:23;12.40;90.20
40538;DHT22;27925;41.874;12.526;2023-04-15T04:25:48;12.40;90.40
40538;DHT22;27925;41.874;12.526;2023-04-15T04:28:14;12.40;90.50
40538;DHT22;27925;41.874;12.526;2023-04-15T04:30:40;12.40;90.50
40538;DHT22;27925;41.874;12.526;2023-04-15T04:33:06;12.40;90.60
40538;DHT22;27925;41.874;12.526;2023-04-15T04:35:32;12.40;90.70
40538;DHT22;27925;41.874;12.526;2023-04-15T04:37:59;12.40;90.80
40538;DHT22;27925;41.874;12.526;2023-04-15T04:40:25;12.30;90.90
40538;DHT22;27925;41.874;12.526;2023-04-15T04:42:52;12.30;90.90
40538;DHT22;27925;41.874;12.526;2023-04-15T04:45:19;12.30;90.90
40538;DHT22;27925;41.874;12.526;2023-04-15T04:47:44;12.20;91.00
40538;DHT22;27925;41.874;12.526;2023-04-15T04:50:11;12.20;91.10
40538;DHT22;27925;41.874;12.526;2023-04-15T04:52:37;12.20;91.00
40538;DHT22;27925;41.874;12.526;2023-04-15T04:55:03;12.10;91.00
40538;DHT22;27925;41.874;12.526;2023-04-15T04:57:29;12.00;90.90
40538;DHT22;27925;41.874;12.526;2023-04-15T04:59:55;12.00;90.90
40538;DHT22;27925;41.874;12.526;2023-04-15T05:02:21;12.00;90.70
40538;DHT22;27925;41.874;12.526;2023-04-15T05:04:47;11.90;90.90
40538;DHT22;27925;41.874;12.526;2023-04-15T05:07:13;11.90;90.90
40538;DHT22;27925;41.874;12.526;2023-04-15T05:09:39;11.90;90.90
40538;DHT22;27925;41.874;12.526;2023-04-15T05:12:04;12.00;91.00
40538;DHT22;27925;41.874;12.526;2023-04-15T05:14:30;11.90;90.80
40538;DHT22;27925;41.874;12.526;2023-04-15T05:16:56;11.90;90.90
40538;DHT22;27925;41.874;12.526;2023-04-15T05:19:22;11.90;91.00
40538;DHT22;27925;41.874;12.526;2023-04-15T05:21:48;11.90;91.10
40538;DHT22;27925;41.874;12.526;2023-04-15T05:24:13;11.90;91.20
40538;DHT22;27925;41.874;12.526;2023-04-15T05:26:39;11.90;91.30
40538;DHT22;27925;41.874;12.526;2023-04-15T05:29:05;12.00;91.50
40538;DHT22;27925;41.874;12.526;2023-04-15T05:31:31;11.90;91.40
40538;DHT22;27925;41.874;12.526;2023-04-15T05:33:57;11.90;91.70
40538;DHT22;27925;41.874;12.526;2023-04-15T05:36:22;11.90;91.70
40538;DHT22;27925;41.874;12.526;2023-04-15T05:38:48;11.90;91.80
40538;DHT22;27925;41.874;12.526;2023-04-15T05:41:14;11.90;91.80
40538;DHT22;27925;41.874;12.526;2023-04-15T05:43:40;11.90;92.00
40538;DHT22;27925;41.874;12.526;2023-04-15T05:46:06;11.90;92.30
40538;DHT22;27925;41.874;12.526;2023-04-15T05:48:33;11.90;92.40
40538;DHT22;27925;41.874;12.526;2023-04-15T05:50:59;11.90;92.70
40538;DHT22;27925;41.874;12.526;2023-04-15T05:53:25;11.90;93.00
40538;DHT22;27925;41.874;12.526;2023-04-15T05:55:51;11.90;93.20
40538;DHT22;27925;41.874;12.526;2023-04-15T05:58:16;11.90;93.20
40538;DHT22;27925;41.874;12.526;2023-04-15T06:00:42;11.80;93.30
40538;DHT22;27925;41.874;12.526;2023-04-15T06:03:09;11.80;93.40
40538;DHT22;27925;41.874;12.526;2023-04-15T06:05:36;11.70;93.40
40538;DHT22;27925;41.874;12.526;2023-04-15T06:08:01;11.60;93.60
40538;DHT22;27925;41.874;12.526;2023-04-15T06:10:27;11.60;94.00
40538;DHT22;27925;41.874;12.526;2023-04-15T06:12:53;11.50;93.70
40538;DHT22;27925;41.874;12.526;2023-04-15T06:15:18;11.50;93.90
40538;DHT22;27925;41.874;12.526;2023-04-15T06:17:44;11.50;93.70
40538;DHT22;27925;41.874;12.526;2023-04-15T06:20:10;11.40;93.90
40538;DHT22;27925;41.874;12.526;2023-04-15T06:22:37;11.40;93.70
40538;DHT22;27925;41.874;12.526;2023-04-15T06:25:04;11.40;94.00
40538;DHT22;27925;41.874;12.526;2023-04-15T06:27:29;11.40;93.70
40538;DHT22;27925;41.874;12.526;2023-04-15T06:29:55;11.50;94.00
40538;DHT22;27925;41.874;12.526;2023-04-15T06:32:21;11.50;93.90
40538;DHT22;27925;41.874;12.526;2023-04-15T06:34:46;11.50;93.70
40538;DHT22;27925;41.874;12.526;2023-04-15T06:37:12;11.50;94.00
40538;DHT22;27925;41.874;12.526;2023-04-15T06:39:41;11.40;93.90
40538;DHT22;27925;41.874;12.526;2023-04-15T06:42:07;11.40;94.40
40538;DHT22;27925;41.874;12.526;2023-04-15T06:44:34;11.30;94.40
40538;DHT22;27925;41.874;12.526;2023-04-15T06:47:00;11.40;94.20
40538;DHT22;27925;41.874;12.526;2023-04-15T06:49:25;11.30;94.00
40538;DHT22;27925;41.874;12.526;2023-04-15T06:51:51;11.40;94.10
40538;DHT22;27925;41.874;12.526;2023-04-15T06:54:17;11.30;94.00
40538;DHT22;27925;41.874;12.526;2023-04-15T06:56:43;11.30;93.90
40538;DHT22;27925;41.874;12.526;2023-04-15T06:59:08;11.30;93.90
40538;DHT22;27925;41.874;12.526;2023-04-15T07:01:34;11.30;94.10
40538;DHT22;27925;41.874;12.526;2023-04-15T07:04:00;11.40;94.20
40538;DHT22;27925;41.874;12.526;2023-04-15T07:06:26;11.40;94.20
40538;DHT22;27925;41.874;12.526;2023-04-15T07:08:52;11.40;94.40
40538;DHT22;27925;41.874;12.526;2023-04-15T07:11:19;11.40;94.40
40538;DHT22;27925;41.874;12.526;2023-04-15T07:13:45;11.40;94.60
40538;DHT22;27925;41.874;12.526;2023-04-15T07:16:11;11.50;94.80
40538;DHT22;27925;41.874;12.526;2023-04-15T07:18:36;11.50;94.60
40538;DHT22;27925;41.874;12.526;2023-04-15T07:21:02;11.50;94.70
40538;DHT22;27925;41.874;12.526;2023-04-15T07:23:28;11.60;95.00
40538;DHT22;27925;41.874;12.526;2023-04-15T07:25:54;11.60;94.70
40538;DHT22;27925;41.874;12.526;2023-04-15T07:28:21;11.50;94.90
40538;DHT22;27925;41.874;12.526;2023-04-15T07:30:47;11.40;94.70
40538;DHT22;27925;41.874;12.526;2023-04-15T07:33:13;11.40;94.70
40538;DHT22;27925;41.874;12.526;2023-04-15T07:35:39;11.30;94.50
40538;DHT22;27925;41.874;12.526;2023-04-15T07:38:04;11.30;94.40
40538;DHT22;27925;41.874;12.526;2023-04-15T07:40:30;11.30;94.50
40538;DHT22;27925;41.874;12.526;2023-04-15T07:42:56;11.40;94.60
40538;DHT22;27925;41.874;12.526;2023-04-15T07:45:23;11.30;94.50
40538;DHT22;27925;41.874;12.526;2023-04-15T07:47:49;11.30;94.70
40538;DHT22;27925;41.874;12.526;2023-04-15T07:50:15;11.30;94.60
40538;DHT22;27925;41.874;12.526;2023-04-15T07:52:42;11.30;94.50
40538;DHT22;27925;41.874;12.526;2023-04-15T07:55:08;11.50;94.50
40538;DHT22;27925;41.874;12.526;2023-04-15T07:57:35;11.50;94.60
40538;DHT22;27925;41.874;12.526;2023-04-15T08:00:03;11.50;94.50
40538;DHT22;27925;41.874;12.526;2023-04-15T08:02:32;11.50;94.10
40538;DHT22;27925;41.874;12.526;2023-04-15T08:04:58;11.60;94.20
40538;DHT22;27925;41.874;12.526;2023-04-15T08:07:24;11.60;94.30
40538;DHT22;27925;41.874;12.526;2023-04-15T08:09:50;11.60;94.10
40538;DHT22;27925;41.874;12.526;2023-04-15T08:12:16;11.60;94.10
40538;DHT22;27925;41.874;12.526;2023-04-15T08:14:42;11.60;94.00
40538;DHT22;27925;41.874;12.526;2023-04-15T08:17:08;11.70;93.80
40538;DHT22;27925;41.874;12.526;2023-04-15T08:19:34;11.70;93.80
40538;DHT22;27925;41.874;12.526;2023-04-15T08:22:00;11.90;93.60
40538;DHT22;27925;41.874;12.526;2023-04-15T08:24:25;11.90;93.70
40538;DHT22;27925;41.874;12.526;2023-04-15T08:26:52;11.90;93.70
40538;DHT22;27925;41.874;12.526;2023-04-15T08:29:17;12.00;93.40
40538;DHT22;27925;41.874;12.526;2023-04-15T08:31:43;12.00;93.40
40538;DHT22;27925;41.874;12.526;2023-04-15T08:34:13;11.90;93.60
40538;DHT22;27925;41.874;12.526;2023-04-15T08:36:41;12.00;93.90
40538;DHT22;27925;41.874;12.526;2023-04-15T08:39:07;11.90;93.80
40538;DHT22;27925;41.874;12.526;2023-04-15T08:41:41;11.80;94.20
40538;DHT22;27925;41.874;12.526;2023-04-15T08:44:11;11.90;94.60
40538;DHT22;27925;41.874;12.526;2023-04-15T08:46:37;11.90;94.20
40538;DHT22;27925;41.874;12.526;2023-04-15T08:49:04;12.00;94.40
40538;DHT22;27925;41.874;12.526;2023-04-15T08:51:30;12.00;94.00
40538;DHT22;27925;41.874;12.526;2023-04-15T08:53:56;12.10;94.20
40538;DHT22;27925;41.874;12.526;2023-04-15T08:56:25;12.10;94.20
40538;DHT22;27925;41.874;12.526;2023-04-15T08:58:51;12.10;94.20
40538;DHT22;27925;41.874;12.526;2023-04-15T09:01:17;12.20;94.30
40538;DHT22;27925;41.874;12.526;2023-04-15T09:03:43;12.20;94.20
40538;DHT22;27925;41.874;12.526;2023-04-15T09:06:10;12.20;94.20
40538;DHT22;27925;41.874;12.526;2023-04-15T09:08:36;12.20;94.20
40538;DHT22;27925;41.874;12.526;2023-04-15T09:11:02;12.10;94.40
40538;DHT22;27925;41.874;12.526;2023-04-15T09:13:28;12.10;94.50
40538;DHT22;27925;41.874;12.526;2023-04-15T09:15:55;12.10;94.80
40538;DHT22;27925;41.874;12.526;2023-04-15T09:18:32;12.30;94.80
40538;DHT22;27925;41.874;12.526;2023-04-15T09:21:11;12.50;95.00
40538;DHT22;27925;41.874;12.526;2023-04-15T09:23:40;13.00;94.40
40538;DHT22;27925;41.874;12.526;2023-04-15T09:26:07;13.30;93.60
40538;DHT22;27925;41.874;12.526;2023-04-15T09:28:33;13.60;93.10
40538;DHT22;27925;41.874;12.526;2023-04-15T09:31:05;13.60;92.60
40538;DHT22;27925;41.874;12.526;2023-04-15T09:33:31;13.50;92.60
40538;DHT22;27925;41.874;12.526;2023-04-15T09:36:02;13.40;92.90
40538;DHT22;27925;41.874;12.526;2023-04-15T09:38:30;13.40;93.30
40538;DHT22;27925;41.874;12.526;2023-04-15T09:40:57;13.50;93.50
40538;DHT22;27925;41.874;12.526;2023-04-15T09:43:39;13.50;93.60
40538;DHT22;27925;41.874;12.526;2023-04-15T09:46:05;13.60;93.60
40538;DHT22;27925;41.874;12.526;2023-04-15T09:48:31;13.60;93.50
40538;DHT22;27925;41.874;12.526;2023-04-15T09:50:57;13.70;93.40
40538;DHT22;27925;41.874;12.526;2023-04-15T09:53:24;13.80;93.40
40538;DHT22;27925;41.874;12.526;2023-04-15T09:55:57;14.10;93.10
40538;DHT22;27925;41.874;12.526;2023-04-15T10:00:54;14.60;92.40
40538;DHT22;27925;41.874;12.526;2023-04-15T10:05:49;14.50;92.30
40538;DHT22;27925;41.874;12.526;2023-04-15T10:08:18;14.40;92.40
40538;DHT22;27925;41.874;12.526;2023-04-15T10:10:45;14.40;92.50
40538;DHT22;27925;41.874;12.526;2023-04-15T10:13:17;14.40;92.70
40538;DHT22;27925;41.874;12.526;2023-04-15T10:15:44;14.50;92.60
40538;DHT22;27925;41.874;12.526;2023-04-15T10:18:15;14.70;92.50
40538;DHT22;27925;41.874;12.526;2023-04-15T10:20:42;14.80;92.60
40538;DHT22;27925;41.874;12.526;2023-04-15T10:23:08;14.80;92.30
40538;DHT22;27925;41.874;12.526;2023-04-15T10:25:35;15.00;92.30
40538;DHT22;27925;41.874;12.526;2023-04-15T10:28:02;15.30;92.00
40538;DHT22;27925;41.874;12.526;2023-04-15T10:30:28;15.60;91.70
40538;DHT22;27925;41.874;12.526;2023-04-15T10:32:55;15.60;91.60
40538;DHT22;27925;41.874;12.526;2023-04-15T10:35:22;15.50;91.80
40538;DHT22;27925;41.874;12.526;2023-04-15T10:37:48;15.30;91.80
40538;DHT22;27925;41.874;12.526;2023-04-15T10:40:29;15.00;91.80
40538;DHT22;27925;41.874;12.526;2023-04-15T10:42:58;14.80;92.20
40538;DHT22;27925;41.874;12.526;2023-04-15T10:45:31;14.70;92.20
40538;DHT22;27925;41.874;12.526;2023-04-15T10:48:01;14.50;92.20
40538;DHT22;27925;41.874;12.526;2023-04-15T10:50:30;14.50;92.50
40538;DHT22;27925;41.874;12.526;2023-04-15T10:52:57;14.30;92.40
40538;DHT22;27925;41.874;12.526;2023-04-15T10:55:25;14.30;92.40
40538;DHT22;27925;41.874;12.526;2023-04-15T10:57:58;14.30;92.60
40538;DHT22;27925;41.874;12.526;2023-04-15T11:00:28;14.40;92.60
40538;DHT22;27925;41.874;12.526;2023-04-15T11:03:08;14.50;92.50
40538;DHT22;27925;41.874;12.526;2023-04-15T20:38:26;13.70;93.80
40538;DHT22;27925;41.874;12.526;2023-04-15T20:40:52;13.80;94.20
40538;DHT22;27925;41.874;12.526;2023-04-15T20:43:17;13.70;93.80
40538;DHT22;27925;41.874;12.526;2023-04-15T20:45:43;13.60;93.70
40538;DHT22;27925;41.874;12.526;2023-04-15T20:48:09;13.60;93.70
40538;DHT22;27925;41.874;12.526;2023-04-15T20:50:35;13.50;93.60
40538;DHT22;27925;41.874;12.526;2023-04-15T20:53:01;13.50;93.50
40538;DHT22;27925;41.874;12.526;2023-04-15T20:55:27;13.50;93.50
40538;DHT22;27925;41.874;12.526;2023-04-15T20:58:11;13.50;93.40
40538;DHT22;27925;41.874;12.526;2023-04-15T21:00:37;13.40;93.30
40538;DHT22;27925;41.874;12.526;2023-04-15T21:03:04;13.40;93.30
40538;DHT22;27925;41.874;12.526;2023-04-15T21:05:29;13.30;93.20
40538;DHT22;27925;41.874;12.526;2023-04-15T21:07:55;13.20;93.60
40538;DHT22;27925;41.874;12.526;2023-04-15T21:10:21;13.20;93.40
40538;DHT22;27925;41.874;12.526;2023-04-15T21:12:47;13.20;93.40
40538;DHT22;27925;41.874;12.526;2023-04-15T21:15:12;13.20;93.40
40538;DHT22;27925;41.874;12.526;2023-04-15T21:17:38;13.20;93.40
40538;DHT22;27925;41.874;12.526;2023-04-15T21:20:04;13.20;93.50
40538;DHT22;27925;41.874;12.526;2023-04-15T21:22:30;13.20;93.50
40538;DHT22;27925;41.874;12.526;2023-04-15T21:24:56;13.20;93.40
40538;DHT22;27925;41.874;12.526;2023-04-15T21:27:22;13.10;93.50
40538;DHT22;27925;41.874;12.526;2023-04-15T21:29:47;13.20;93.70
40538;DHT22;27925;41.874;12.526;2023-04-15T21:32:13;13.20;93.60
40538;DHT22;27925;41.874;12.526;2023-04-15T21:34:39;13.20;93.60
40538;DHT22;27925;41.874;12.526;2023-04-15T21:37:04;13.20;93.70
40538;DHT22;27925;41.874;12.526;2023-04-15T21:39:30;13.20;93.90
40538;DHT22;27925;41.874;12.526;2023-04-15T21:41:56;13.20;94.00
40538;DHT22;27925;41.874;12.526;2023-04-15T21:44:23;13.20;93.90
40538;DHT22;27925;41.874;12.526;2023-04-15T21:46:50;13.20;93.90
40538;DHT22;27925;41.874;12.526;2023-04-15T21:49:16;13.20;93.90
40538;DHT22;27925;41.874;12.526;2023-04-15T21:51:41;13.20;93.90
40538;DHT22;27925;41.874;12.526;2023-04-15T21:54:07;13.20;93.80
40538;DHT22;27925;41.874;12.526;2023-04-15T21:56:33;13.10;93.60
40538;DHT22;27925;41.874;12.526;2023-04-15T21:58:58;13.10;93.80
40538;DHT22;27925;41.874;12.526;2023-04-15T22:01:25;13.10;93.70
40538;DHT22;27925;41.874;12.526;2023-04-15T22:03:51;13.10;93.70
40538;DHT22;27925;41.874;12.526;2023-04-15T22:06:17;13.10;93.80
40538;DHT22;27925;41.874;12.526;2023-04-15T22:08:42;13.10;93.80
40538;DHT22;27925;41.874;12.526;2023-04-15T22:11:09;13.10;93.60
40538;DHT22;27925;41.874;12.526;2023-04-15T22:13:35;13.10;93.60
40538;DHT22;27925;41.874;12.526;2023-04-15T22:16:01;13.10;93.60
40538;DHT22;27925;41.874;12.526;2023-04-15T22:18:27;13.10;93.40
40538;DHT22;27925;41.874;12.526;2023-04-15T22:20:52;13.10;93.40
40538;DHT22;27925;41.874;12.526;2023-04-15T22:23:18;13.10;93.30
40538;DHT22;27925;41.874;12.526;2023-04-15T22:25:47;13.10;93.20
40538;DHT22;27925;41.874;12.526;2023-04-15T22:28:12;13.10;93.30
40538;DHT22;27925;41.874;12.526;2023-04-15T22:30:39;13.00;93.20
40538;DHT22;27925;41.874;12.526;2023-04-15T22:33:06;13.00;93.50
40538;DHT22;27925;41.874;12.526;2023-04-15T22:35:32;13.00;93.50
40538;DHT22;27925;41.874;12.526;2023-04-15T22:37:59;12.90;93.40
40538;DHT22;27925;41.874;12.526;2023-04-15T22:40:25;12.90;93.60
40538;DHT22;27925;41.874;12.526;2023-04-15T22:42:50;12.90;93.60
40538;DHT22;27925;41.874;12.526;2023-04-15T22:45:16;12.90;93.80
40538;DHT22;27925;41.874;12.526;2023-04-15T22:47:42;12.90;93.80
40538;DHT22;27925;41.874;12.526;2023-04-15T22:50:08;12.80;93.70
40538;DHT22;27925;41.874;12.526;2023-04-15T22:52:33;12.80;93.60
40538;DHT22;27925;41.874;12.526;2023-04-15T22:54:59;12.80;93.60
40538;DHT22;27925;41.874;12.526;2023-04-15T22:57:26;12.80;93.50
40538;DHT22;27925;41.874;12.526;2023-04-15T22:59:52;12.80;93.40
40538;DHT22;27925;41.874;12.526;2023-04-15T23:02:18;12.80;93.30
40538;DHT22;27925;41.874;12.526;2023-04-15T23:04:44;12.70;93.10
40538;DHT22;27925;41.874;12.526;2023-04-15T23:07:09;12.70;93.10
40538;DHT22;27925;41.874;12.526;2023-04-15T23:09:36;12.70;93.10
40538;DHT22;27925;41.874;12.526;2023-04-15T23:12:02;12.70;93.00
40538;DHT22;27925;41.874;12.526;2023-04-15T23:14:27;12.70;93.00
40538;DHT22;27925;41.874;12.526;2023-04-15T23:16:55;12.70;92.90
40538;DHT22;27925;41.874;12.526;2023-04-15T23:19:21;12.70;92.80
40538;DHT22;27925;41.874;12.526;2023-04-15T23:21:46;12.70;92.70
40538;DHT22;27925;41.874;12.526;2023-04-15T23:24:12;12.60;92.70
40538;DHT22;27925;41.874;12.526;2023-04-15T23:26:37;12.60;92.70
40538;DHT22;27925;41.874;12.526;2023-04-15T23:29:03;12.60;92.50
40538;DHT22;27925;41.874;12.526;2023-04-15T23:31:29;12.60;92.70
40538;DHT22;27925;41.874;12.526;2023-04-15T23:33:54;12.60;92.60
40538;DHT22;27925;41.874;12.526;2023-04-15T23:36:20;12.60;92.60
40538;DHT22;27925;41.874;12.526;2023-04-15T23:38:46;12.60;92.60
40538;DHT22;27925;41.874;12.526;2023-04-15T23:41:12;12.60;92.50
40538;DHT22;27925;41.874;12.526;2023-04-15T23:43:38;12.60;92.50
40538;DHT22;27925;41.874;12.526;2023-04-15T23:46:03;12.70;92.40
40538;DHT22;27925;41.874;12.526;2023-04-15T23:48:30;12.70;92.40
40538;DHT22;27925;41.874;12.526;2023-04-15T23:50:55;12.70;92.10
40538;DHT22;27925;41.874;12.526;2023-04-15T23:53:21;12.70;92.00
40538;DHT22;27925;41.874;12.526;2023-04-15T23:55:47;12.70;91.70
40538;DHT22;27925;41.874;12.526;2023-04-15T23:58:13;12.80;91.60
